PWSweather.com
Personal Weather Stations
Station Observations
283002842
28300 Mainvilliers, France, MainvilliersFR 28300

28300 Mainvilliers, FranceMainvilliersFR 28300

Lat: 48.4504566, Lon: 1.4527078

Elevation: 156

Station Type: Station météorologique PCE-FWS20

http://meteo28300.fr

Latest ConditionsUpdated 12:19:00 AM GMT+01:01 Monday, Dec 17, 2018
Currently Today's Max Today's Min Today's Average
Temperature 43.5°F6.4°C 43.5°F6.4°C 43.5°F6.4°C 43.5°F6.4°C
Dew Point 43.3°F6.3°C 43.3°F6.3°C 43.3°F6.3°C 43.3°F6.3°C
Winds 5.4 mph SE8.7 kmh SE 7.6 mph -12.2 kmh - - 4.6 mph 7.4 kmh
Wind Gusts 9.8 mph15.8 kmh 9.8 mph15.8 kmh - -
Humidity 99% 99% 99% 99%
Pressure 29.62 in1003.0 mb 29.62 in1003.0 mb 29.61 in1002.7 mb -
Hour Temp Dew Point Humidity Winds Wind Gusts Pressure Precip Precip Rate Daily Precip Total
12:19 AM 43.5°F6.4°C 43.3°F6.3°C 99% 5.4 mph SE8.7 kmh SE 9.8 mph15.8 kmh 29.62 in1003.0 mb 0.00 in0.0 mm 0.00 in0.0 mm 0.00 in0.0 mm
12:18 AM 43.5°F6.4°C 43.3°F6.3°C 99% 4.5 mph SSE7.2 kmh SSE 9.8 mph15.8 kmh 29.62 in1003.0 mb 0.00 in0.0 mm 0.00 in0.0 mm 0.00 in0.0 mm
12:17 AM 43.5°F6.4°C 43.3°F6.3°C 99% 3.8 mph SSE6.1 kmh SSE 9.8 mph15.8 kmh 29.62 in1003.0 mb 0.00 in0.0 mm 0.00 in0.0 mm 0.00 in0.0 mm
12:16 AM 43.5°F6.4°C 43.3°F6.3°C 99% 4.5 mph SSE7.2 kmh SSE 9.8 mph15.8 kmh 29.62 in1003.0 mb 0.00 in0.0 mm 0.00 in0.0 mm 0.00 in0.0 mm
12:15 AM 43.5°F6.4°C 43.3°F6.3°C 99% 4.5 mph SSE7.2 kmh SSE 9.8 mph15.8 kmh 29.61 in1002.7 mb 0.00 in0.0 mm 0.00 in0.0 mm 0.00 in0.0 mm
12:14 AM 43.5°F6.4°C 43.3°F6.3°C 99% 7.6 mph SSE12.2 kmh SSE 9.8 mph15.8 kmh 29.62 in1003.0 mb 0.00 in0.0 mm 0.00 in0.0 mm 0.00 in0.0 mm
12:13 AM 43.5°F6.4°C 43.3°F6.3°C 99% 5.4 mph SSE8.7 kmh SSE 7.6 mph12.2 kmh 29.61 in1002.7 mb 0.00 in0.0 mm 0.00 in0.0 mm 0.00 in0.0 mm
12:12 AM 43.5°F6.4°C 43.3°F6.3°C 99% 4.5 mph SSE7.2 kmh SSE 7.6 mph12.2 kmh 29.61 in1002.7 mb 0.00 in0.0 mm 0.00 in0.0 mm 0.00 in0.0 mm
12:11 AM 43.5°F6.4°C 43.3°F6.3°C 99% 4.5 mph S7.2 kmh S 7.6 mph12.2 kmh 29.62 in1003.0 mb 0.00 in0.0 mm 0.00 in0.0 mm 0.00 in0.0 mm
12:10 AM 43.5°F6.4°C 43.3°F6.3°C 99% 5.4 mph S8.7 kmh S 7.6 mph12.2 kmh 29.61 in1002.7 mb 0.00 in0.0 mm 0.00 in0.0 mm 0.00 in0.0 mm
12:09 AM 43.5°F6.4°C 43.3°F6.3°C 99% 4.5 mph S7.2 kmh S 7.6 mph12.2 kmh 29.61 in1002.7 mb 0.00 in0.0 mm 0.00 in0.0 mm 0.00 in0.0 mm
12:08 AM 43.5°F6.4°C 43.3°F6.3°C 99% 5.4 mph SSE8.7 kmh SSE 7.6 mph12.2 kmh 29.61 in1002.7 mb 0.00 in0.0 mm 0.00 in0.0 mm 0.00 in0.0 mm
12:07 AM 43.5°F6.4°C 43.3°F6.3°C 99% 4.5 mph SSE7.2 kmh SSE 6.9 mph11.1 kmh 29.61 in1002.7 mb 0.00 in0.0 mm 0.00 in0.0 mm 0.00 in0.0 mm
12:06 AM 43.5°F6.4°C 43.3°F6.3°C 99% 3.8 mph S6.1 kmh S 6.9 mph11.1 kmh 29.61 in1002.7 mb 0.00 in0.0 mm 0.00 in0.0 mm 0.00 in0.0 mm
12:05 AM 43.5°F6.4°C 43.3°F6.3°C 99% 3.8 mph SSE6.1 kmh SSE 6.9 mph11.1 kmh 29.61 in1002.7 mb 0.00 in0.0 mm 0.00 in0.0 mm 0.00 in0.0 mm
12:04 AM 43.5°F6.4°C 43.3°F6.3°C 99% 3.8 mph SSE6.1 kmh SSE 6.9 mph11.1 kmh 29.61 in1002.7 mb 0.00 in0.0 mm 0.00 in0.0 mm 0.00 in0.0 mm
12:03 AM 43.5°F6.4°C 43.3°F6.3°C 99% 3.8 mph SSE6.1 kmh SSE 6.9 mph11.1 kmh 29.61 in1002.7 mb 0.00 in0.0 mm 0.00 in0.0 mm 0.00 in0.0 mm
12:02 AM 43.5°F6.4°C 43.3°F6.3°C 99% 3.8 mph SSE6.1 kmh SSE 6.9 mph11.1 kmh 29.61 in1002.7 mb 0.00 in0.0 mm 0.00 in0.0 mm 0.00 in0.0 mm
12:01 AM 43.5°F6.4°C 43.3°F6.3°C 99% 3.8 mph SSE6.1 kmh SSE 6.9 mph11.1 kmh 29.61 in1002.7 mb 0.00 in0.0 mm 0.00 in0.0 mm 0.00 in0.0 mm
12:00 AM 43.5°F6.4°C 43.3°F6.3°C 99% 4.5 mph SSE7.2 kmh SSE 6.9 mph11.1 kmh 29.61 in1002.7 mb 0.00 in0.0 mm 0.00 in0.0 mm 0.00 in0.0 mm